createdAt,value
2018-05-31T00:00:16.871Z,0.00
2018-05-31T00:01:16.783Z,0.00
2018-05-31T00:02:16.692Z,0.00
2018-05-31T00:03:16.701Z,0.00
2018-05-31T00:04:16.546Z,0.00
2018-05-31T00:05:16.428Z,0.00
2018-05-31T00:06:16.338Z,0.00
2018-05-31T00:07:16.248Z,0.00
2018-05-31T00:08:16.162Z,0.00
2018-05-31T00:09:16.076Z,0.00
2018-05-31T00:10:16.109Z,0.00
2018-05-31T00:11:15.897Z,0.00
2018-05-31T00:12:15.808Z,0.00
2018-05-31T00:13:15.717Z,0.00
2018-05-31T00:14:15.632Z,0.00
2018-05-31T00:15:15.590Z,0.00
2018-05-31T00:16:15.454Z,0.00
2018-05-31T00:17:15.462Z,0.00
2018-05-31T00:18:15.278Z,0.00
2018-05-31T00:19:15.192Z,0.00
2018-05-31T00:20:15.129Z,0.00
2018-05-31T00:21:15.012Z,0.00
2018-05-31T00:22:14.923Z,0.00
2018-05-31T00:23:14.834Z,0.00
2018-05-31T00:24:14.746Z,0.00
2018-05-31T00:25:14.754Z,0.00
2018-05-31T00:26:14.571Z,0.00
2018-05-31T00:27:14.481Z,0.00
2018-05-31T00:28:14.394Z,0.00
2018-05-31T00:29:14.307Z,0.00
2018-05-31T00:30:14.245Z,0.00
2018-05-31T00:31:14.127Z,0.00
2018-05-31T00:32:14.038Z,0.00
2018-05-31T00:33:13.952Z,0.00
2018-05-31T00:34:13.866Z,0.00
2018-05-31T00:35:13.805Z,0.00
2018-05-31T00:36:13.691Z,0.00
2018-05-31T00:37:13.597Z,0.00
2018-05-31T00:38:13.510Z,0.00
2018-05-31T00:39:13.421Z,0.00
2018-05-31T00:40:13.360Z,0.00
2018-05-31T00:41:13.243Z,0.00
2018-05-31T00:42:13.155Z,0.00
2018-05-31T00:43:13.072Z,0.00
2018-05-31T00:44:12.979Z,0.00
2018-05-31T00:45:12.919Z,0.00
2018-05-31T00:46:12.802Z,0.00
2018-05-31T00:47:12.714Z,0.00
2018-05-31T00:48:12.624Z,0.00
2018-05-31T00:49:12.535Z,0.00
2018-05-31T00:50:12.476Z,0.00
2018-05-31T00:51:12.360Z,0.00
2018-05-31T00:52:12.267Z,0.00
2018-05-31T00:53:12.179Z,0.00
2018-05-31T00:54:12.094Z,0.00
2018-05-31T00:55:12.033Z,0.00
2018-05-31T00:56:11.917Z,0.00
2018-05-31T00:57:11.828Z,0.00
2018-05-31T00:58:11.738Z,0.00
2018-05-31T00:59:11.651Z,0.00
2018-05-31T01:00:11.592Z,0.00
2018-05-31T01:01:11.474Z,0.00
2018-05-31T01:02:11.390Z,0.00
2018-05-31T01:03:11.296Z,0.00
2018-05-31T01:04:11.209Z,0.00
2018-05-31T01:05:11.149Z,0.00
2018-05-31T01:06:11.030Z,0.00
2018-05-31T01:07:10.942Z,0.00
2018-05-31T01:08:10.853Z,0.00
2018-05-31T01:09:10.766Z,0.00
2018-05-31T01:10:10.709Z,0.00
2018-05-31T01:11:10.589Z,0.00
2018-05-31T01:12:10.501Z,0.00
2018-05-31T01:13:10.411Z,0.00
2018-05-31T01:14:10.322Z,0.00
2018-05-31T01:15:10.235Z,0.00
2018-05-31T01:16:10.176Z,0.00
2018-05-31T01:17:10.059Z,0.00
2018-05-31T01:18:09.972Z,0.00
2018-05-31T01:19:09.895Z,0.00
2018-05-31T01:20:09.796Z,0.00
2018-05-31T01:21:09.736Z,0.00
2018-05-31T01:22:09.617Z,0.00
2018-05-31T01:23:09.528Z,0.00
2018-05-31T01:24:09.442Z,0.00
2018-05-31T01:25:09.355Z,0.00
2018-05-31T01:26:09.294Z,0.00
2018-05-31T01:27:09.176Z,0.00
2018-05-31T01:28:09.092Z,0.00
2018-05-31T01:29:08.999Z,0.00
2018-05-31T01:30:08.912Z,0.00
2018-05-31T01:31:08.853Z,0.00
2018-05-31T01:32:08.742Z,0.00
2018-05-31T01:33:08.649Z,0.00
2018-05-31T01:34:08.559Z,0.00
2018-05-31T01:35:08.470Z,0.00
2018-05-31T01:36:08.415Z,0.00
2018-05-31T01:37:08.294Z,0.00
2018-05-31T01:38:08.207Z,0.00
2018-05-31T01:39:08.117Z,0.00
2018-05-31T01:40:08.028Z,0.00
2018-05-31T01:41:07.969Z,0.00
2018-05-31T01:42:07.852Z,0.00
2018-05-31T01:43:07.764Z,0.00
2018-05-31T01:44:07.678Z,0.00
2018-05-31T01:45:07.589Z,0.00
2018-05-31T01:46:07.531Z,0.00
2018-05-31T01:47:07.417Z,0.00
2018-05-31T01:48:07.611Z,0.00
2018-05-31T01:49:07.240Z,0.00
2018-05-31T01:50:07.150Z,0.00
2018-05-31T01:51:07.089Z,0.00
2018-05-31T01:52:06.971Z,0.00
2018-05-31T01:53:06.881Z,0.00
2018-05-31T01:54:06.793Z,0.00
2018-05-31T01:55:06.808Z,0.00
2018-05-31T01:56:06.650Z,0.00
2018-05-31T01:57:06.530Z,0.00
2018-05-31T01:58:06.447Z,0.00
2018-05-31T01:59:06.350Z,0.00
2018-05-31T02:00:06.264Z,0.00
2018-05-31T02:01:06.203Z,0.00
2018-05-31T02:02:06.197Z,0.00
2018-05-31T02:03:05.995Z,0.00
2018-05-31T02:04:05.908Z,0.00
2018-05-31T02:05:05.824Z,0.00
2018-05-31T02:06:05.764Z,0.00
2018-05-31T02:07:05.641Z,0.00
2018-05-31T02:08:05.555Z,0.00
2018-05-31T02:09:05.569Z,0.00
2018-05-31T02:10:05.382Z,0.00
2018-05-31T02:11:05.321Z,0.00
2018-05-31T02:12:05.202Z,0.00
2018-05-31T02:13:05.115Z,0.00
2018-05-31T02:14:05.026Z,0.00
2018-05-31T02:15:04.939Z,0.00
2018-05-31T02:16:04.976Z,0.00
2018-05-31T02:17:04.757Z,0.00
2018-05-31T02:18:04.671Z,0.00
2018-05-31T02:19:04.582Z,0.00
2018-05-31T02:20:04.494Z,0.00
2018-05-31T02:21:04.435Z,0.00
2018-05-31T02:22:04.315Z,0.00
2018-05-31T02:23:04.342Z,0.00
2018-05-31T02:24:04.143Z,4.00
2018-05-31T02:25:04.049Z,4.00
2018-05-31T02:26:03.964Z,4.00
2018-05-31T02:27:03.901Z,0.00
2018-05-31T02:28:03.782Z,4.00
2018-05-31T02:29:03.695Z,4.00
2018-05-31T02:30:03.702Z,4.00
2018-05-31T02:31:03.526Z,4.00
2018-05-31T02:32:03.462Z,4.00
2018-05-31T02:33:03.346Z,4.00
2018-05-31T02:34:03.253Z,4.00
2018-05-31T02:35:03.167Z,4.00
2018-05-31T02:36:03.078Z,8.00
2018-05-31T02:37:03.117Z,8.00
2018-05-31T02:38:02.900Z,8.00
2018-05-31T02:39:02.810Z,12.00
2018-05-31T02:40:02.723Z,12.00
2018-05-31T02:41:02.640Z,16.00
2018-05-31T02:42:02.577Z,16.00
2018-05-31T02:43:02.457Z,16.00
2018-05-31T02:44:02.489Z,20.00
2018-05-31T02:45:02.278Z,20.00
2018-05-31T02:46:02.190Z,24.00
2018-05-31T02:47:02.132Z,28.00
2018-05-31T02:48:02.015Z,32.00
2018-05-31T02:49:01.925Z,40.00
2018-05-31T02:50:01.844Z,40.00
2018-05-31T02:51:01.851Z,44.00
2018-05-31T02:52:01.690Z,52.00
2018-05-31T02:53:01.583Z,60.00
2018-05-31T02:54:01.485Z,72.00
2018-05-31T02:55:01.395Z,80.00
2018-05-31T02:56:01.305Z,92.00
2018-05-31T02:57:01.253Z,104.00
2018-05-31T02:58:01.231Z,120.00
2018-05-31T02:59:01.042Z,132.00
2018-05-31T03:00:00.959Z,144.00
2018-05-31T03:01:00.870Z,156.00
2018-05-31T03:02:00.808Z,168.00
2018-05-31T03:03:00.688Z,180.00
2018-05-31T03:04:00.600Z,196.00
2018-05-31T03:05:00.614Z,216.00
2018-05-31T03:06:00.421Z,236.00
2018-05-31T03:07:00.363Z,260.00
2018-05-31T03:08:00.246Z,280.00
2018-05-31T03:09:00.156Z,296.00
2018-05-31T03:10:00.069Z,316.00
2018-05-31T03:10:59.981Z,336.00
2018-05-31T03:11:59.921Z,356.00
2018-05-31T03:12:59.805Z,380.00
2018-05-31T03:13:59.716Z,408.00
2018-05-31T03:14:59.628Z,436.00
2018-05-31T03:15:59.537Z,468.00
2018-05-31T03:16:59.481Z,500.00
2018-05-31T03:17:59.364Z,536.00
2018-05-31T03:18:59.272Z,568.00
2018-05-31T03:19:59.186Z,604.00
2018-05-31T03:20:59.095Z,644.00
2018-05-31T03:21:59.038Z,684.00
2018-05-31T03:22:58.918Z,724.00
2018-05-31T03:23:58.832Z,764.00
2018-05-31T03:24:58.742Z,804.00
2018-05-31T03:25:58.654Z,856.00
2018-05-31T03:26:58.596Z,900.00
2018-05-31T03:27:58.475Z,956.00
2018-05-31T03:28:58.390Z,1012.00
2018-05-31T03:29:58.300Z,1064.00
2018-05-31T03:30:58.215Z,1120.00
2018-05-31T03:31:58.152Z,1176.00
2018-05-31T03:32:58.034Z,1236.00
2018-05-31T03:33:57.944Z,1288.00
2018-05-31T03:34:57.861Z,1348.00
2018-05-31T03:35:57.772Z,1404.00
2018-05-31T03:36:57.714Z,1464.00
2018-05-31T03:37:57.595Z,1516.00
2018-05-31T03:38:57.510Z,1552.00
2018-05-31T03:39:57.418Z,1576.00
2018-05-31T03:40:57.905Z,1604.00
2018-05-31T03:41:57.269Z,1632.00
2018-05-31T03:42:57.152Z,1664.00
2018-05-31T03:43:57.060Z,1700.00
2018-05-31T03:44:56.975Z,1744.00
2018-05-31T03:45:57.009Z,1792.00
2018-05-31T03:46:56.802Z,1832.00
2018-05-31T03:47:56.741Z,1860.00
2018-05-31T03:48:56.619Z,1880.00
2018-05-31T03:49:56.533Z,1880.00
2018-05-31T03:50:56.444Z,1920.00
2018-05-31T03:51:56.356Z,1968.00
2018-05-31T03:52:56.295Z,2028.00
2018-05-31T03:53:56.179Z,2072.00
2018-05-31T03:54:56.087Z,2120.00
2018-05-31T03:55:56.000Z,2164.00
2018-05-31T03:56:55.913Z,2204.00
2018-05-31T03:57:55.851Z,2240.00
2018-05-31T03:58:55.733Z,2272.00
2018-05-31T03:59:55.644Z,2304.00
2018-05-31T04:00:55.557Z,2348.00
2018-05-31T04:01:55.471Z,2392.00
2018-05-31T04:02:55.414Z,2436.00
2018-05-31T04:03:55.293Z,2484.00
2018-05-31T04:04:55.204Z,2540.00
2018-05-31T04:05:55.115Z,2588.00
2018-05-31T04:06:55.026Z,2640.00
2018-05-31T04:07:54.968Z,2684.00
2018-05-31T04:08:54.850Z,2728.00
2018-05-31T04:09:54.761Z,2780.00
2018-05-31T04:10:54.674Z,2820.00
2018-05-31T04:11:54.586Z,2880.00
2018-05-31T04:12:54.526Z,2936.00
2018-05-31T04:13:54.406Z,3008.00
2018-05-31T04:14:54.317Z,3084.00
2018-05-31T04:15:54.230Z,3160.00
2018-05-31T04:16:54.139Z,3224.00
2018-05-31T04:17:54.083Z,3296.00
2018-05-31T04:18:53.963Z,3400.00
2018-05-31T04:19:53.875Z,3488.00
2018-05-31T04:20:53.790Z,3592.00
2018-05-31T04:21:53.700Z,3688.00
2018-05-31T04:22:53.635Z,3788.00
2018-05-31T04:23:53.521Z,3892.00
2018-05-31T04:24:53.435Z,4004.00
2018-05-31T04:25:53.344Z,4108.00
2018-05-31T04:26:53.255Z,4188.00
2018-05-31T04:27:53.294Z,4272.00
2018-05-31T04:28:53.082Z,4348.00
2018-05-31T04:29:52.994Z,4444.00
2018-05-31T04:30:52.900Z,4512.00
2018-05-31T04:31:52.812Z,4560.00
2018-05-31T04:32:52.757Z,4592.00
2018-05-31T04:33:52.636Z,4600.00
2018-05-31T04:34:52.547Z,4596.00
2018-05-31T04:35:52.461Z,4592.00
2018-05-31T04:36:52.371Z,4588.00
2018-05-31T04:37:52.316Z,4700.00
2018-05-31T04:38:52.907Z,4924.00
2018-05-31T04:39:52.106Z,4748.00
2018-05-31T04:40:52.016Z,4524.00
2018-05-31T04:41:52.152Z,4480.00
2018-05-31T04:42:51.872Z,4500.00
2018-05-31T04:43:51.754Z,4440.00
2018-05-31T04:44:51.666Z,4312.00
2018-05-31T04:45:51.579Z,4248.00
2018-05-31T04:46:51.487Z,4460.00
2018-05-31T04:47:51.438Z,4992.00
2018-05-31T04:48:51.405Z,4860.00
2018-05-31T04:49:51.226Z,4756.00
2018-05-31T04:50:51.137Z,5328.00
2018-05-31T04:51:51.049Z,4488.00
2018-05-31T04:52:50.977Z,3544.00
2018-05-31T04:53:50.908Z,3304.00
2018-05-31T04:54:50.787Z,3248.00
2018-05-31T04:55:50.797Z,3232.00
2018-05-31T04:56:50.615Z,3248.00
2018-05-31T04:57:50.524Z,3272.00
2018-05-31T04:58:50.467Z,3300.00
2018-05-31T04:59:50.348Z,3356.00
2018-05-31T05:00:50.264Z,3420.00
2018-05-31T05:01:51.378Z,3500.00
2018-05-31T05:02:50.196Z,3584.00
2018-05-31T05:03:50.027Z,3700.00
2018-05-31T05:04:49.912Z,3836.00
2018-05-31T05:05:49.828Z,3952.00
2018-05-31T05:06:49.739Z,4060.00
2018-05-31T05:07:49.647Z,4204.00
2018-05-31T05:08:49.590Z,4348.00
2018-05-31T05:09:49.569Z,4428.00
2018-05-31T05:10:49.388Z,4520.00
2018-05-31T05:11:49.297Z,4632.00
2018-05-31T05:12:49.212Z,4676.00
2018-05-31T05:13:49.158Z,4760.00
2018-05-31T05:14:49.039Z,4912.00
2018-05-31T05:15:48.947Z,5040.00
2018-05-31T05:16:48.957Z,5148.00
2018-05-31T05:17:48.775Z,5244.00
2018-05-31T05:18:48.717Z,5300.00
2018-05-31T05:19:48.602Z,5440.00
2018-05-31T05:20:48.515Z,5764.00
2018-05-31T05:21:48.455Z,5928.00
2018-05-31T05:22:48.342Z,5988.00
2018-05-31T05:23:48.377Z,6044.00
2018-05-31T05:24:48.176Z,6128.00
2018-05-31T05:25:48.078Z,6312.00
2018-05-31T05:26:47.991Z,6484.00
2018-05-31T05:27:47.905Z,6616.00
2018-05-31T05:28:48.434Z,6708.00
2018-05-31T05:29:47.727Z,6812.00
2018-05-31T05:30:47.894Z,7828.00
2018-05-31T05:31:47.555Z,8760.00
2018-05-31T05:32:47.468Z,7272.00
2018-05-31T05:33:47.409Z,7372.00
2018-05-31T05:34:47.292Z,7352.00
2018-05-31T05:35:47.223Z,7512.00
2018-05-31T05:36:47.122Z,7856.00
2018-05-31T05:37:47.126Z,8484.00
2018-05-31T05:38:46.973Z,8612.00
2018-05-31T05:39:46.856Z,8280.00
2018-05-31T05:40:46.771Z,8832.00
2018-05-31T05:41:46.683Z,8196.00
2018-05-31T05:42:46.596Z,9848.00
2018-05-31T05:43:46.536Z,9376.00
2018-05-31T05:44:46.517Z,9384.00
2018-05-31T05:45:46.335Z,8044.00
2018-05-31T05:46:46.246Z,7992.00
2018-05-31T05:47:46.161Z,8080.00
2018-05-31T05:48:46.107Z,8072.00
2018-05-31T05:49:45.991Z,8268.00
2018-05-31T05:50:45.899Z,8756.00
2018-05-31T05:51:45.905Z,8736.00
2018-05-31T05:52:45.726Z,9532.00
2018-05-31T05:53:45.670Z,9372.00
2018-05-31T05:54:45.550Z,9340.00
2018-05-31T05:55:47.394Z,8544.00
2018-05-31T05:56:45.895Z,9360.00
2018-05-31T05:57:45.291Z,8552.00
2018-05-31T05:58:45.231Z,8568.00
2018-05-31T05:59:45.123Z,8652.00
2018-05-31T06:00:45.032Z,9268.00
2018-05-31T06:01:44.947Z,9240.00
2018-05-31T06:02:44.858Z,8804.00
2018-05-31T06:03:44.799Z,8860.00
2018-05-31T06:04:45.401Z,9008.00
2018-05-31T06:05:44.600Z,13328.00
2018-05-31T06:06:44.511Z,10944.00
2018-05-31T06:07:44.424Z,10684.00
2018-05-31T06:08:44.340Z,9616.00
2018-05-31T06:09:44.279Z,9612.00
2018-05-31T06:10:44.162Z,9584.00
2018-05-31T06:11:44.078Z,9596.00
2018-05-31T06:12:43.991Z,9644.00
2018-05-31T06:13:43.907Z,9712.00
2018-05-31T06:14:43.848Z,9804.00
2018-05-31T06:15:43.732Z,9880.00
2018-05-31T06:16:43.646Z,9980.00
2018-05-31T06:17:43.562Z,10404.00
2018-05-31T06:18:43.473Z,11508.00
2018-05-31T06:19:43.455Z,10376.00
2018-05-31T06:20:43.302Z,10524.00
2018-05-31T06:21:43.214Z,10428.00
2018-05-31T06:22:43.131Z,10480.00
2018-05-31T06:23:43.042Z,10520.00
2018-05-31T06:24:42.982Z,10584.00
2018-05-31T06:25:42.868Z,10684.00
2018-05-31T06:26:42.782Z,10656.00
2018-05-31T06:27:42.701Z,10844.00
2018-05-31T06:28:42.615Z,10996.00
2018-05-31T06:29:42.555Z,11324.00
2018-05-31T06:30:42.441Z,11452.00
2018-05-31T06:31:42.354Z,12100.00
2018-05-31T06:32:42.267Z,14600.00
2018-05-31T06:33:42.178Z,16884.00
2018-05-31T06:34:42.121Z,22080.00
2018-05-31T06:35:42.008Z,21376.00
2018-05-31T06:36:41.921Z,24480.00
2018-05-31T06:37:42.467Z,27936.00
2018-05-31T06:38:41.748Z,29728.00
2018-05-31T06:39:41.696Z,29824.00
2018-05-31T06:40:41.589Z,31200.00
2018-05-31T06:41:41.490Z,32000.00
2018-05-31T06:42:41.406Z,34880.00
2018-05-31T06:43:41.318Z,39904.00
2018-05-31T06:44:41.263Z,43904.00
2018-05-31T06:45:41.148Z,49824.00
2018-05-31T06:46:41.063Z,50112.00
2018-05-31T06:47:40.981Z,55456.00
2018-05-31T06:48:40.895Z,59520.00
2018-05-31T06:49:40.844Z,60960.00
2018-05-31T06:50:40.723Z,59392.00
2018-05-31T06:51:40.641Z,60448.00
2018-05-31T06:52:40.577Z,63360.00
2018-05-31T06:53:40.471Z,65856.00
2018-05-31T06:54:40.420Z,64992.00
2018-05-31T06:55:40.309Z,55232.00
2018-05-31T06:56:40.221Z,50400.00
2018-05-31T06:57:40.140Z,50400.00
2018-05-31T06:58:40.054Z,63104.00
2018-05-31T06:59:40.001Z,67712.00
2018-05-31T07:00:39.890Z,63488.00
2018-05-31T07:01:39.806Z,64736.00
2018-05-31T07:02:39.725Z,65376.00
2018-05-31T07:03:39.641Z,65472.00
2018-05-31T07:04:39.593Z,76864.00
2018-05-31T07:05:39.479Z,66592.00
2018-05-31T07:06:39.397Z,50912.00
2018-05-31T07:07:39.316Z,46752.00
2018-05-31T07:08:39.236Z,47008.00
2018-05-31T07:09:39.187Z,50528.00
2018-05-31T07:10:39.073Z,55424.00
2018-05-31T07:11:38.992Z,61536.00
2018-05-31T07:12:38.912Z,65056.00
2018-05-31T07:13:38.831Z,63104.00
2018-05-31T07:14:38.750Z,57696.00
2018-05-31T07:15:38.697Z,55968.00
2018-05-31T07:16:38.586Z,61184.00
2018-05-31T07:17:38.508Z,61248.00
2018-05-31T07:18:38.981Z,64192.00
2018-05-31T07:19:38.349Z,63648.00
2018-05-31T07:20:38.302Z,60768.00
2018-05-31T07:21:38.187Z,61920.00
2018-05-31T07:22:38.106Z,65088.00
2018-05-31T07:23:38.024Z,66592.00
2018-05-31T07:24:37.949Z,66368.00
2018-05-31T07:25:37.898Z,67072.00
2018-05-31T07:26:37.788Z,65888.00
2018-05-31T07:27:37.709Z,65536.00
2018-05-31T07:28:37.628Z,61920.00
2018-05-31T07:29:37.552Z,68000.00
2018-05-31T07:30:37.502Z,77216.00
2018-05-31T07:31:37.388Z,72288.00
2018-05-31T07:32:37.309Z,72384.00
2018-05-31T07:33:37.235Z,66304.00
2018-05-31T07:34:37.151Z,57280.00
2018-05-31T07:35:37.106Z,65504.00
2018-05-31T07:36:36.993Z,72768.00
2018-05-31T07:37:36.914Z,71776.00
2018-05-31T07:38:36.882Z,66240.00
2018-05-31T07:39:36.756Z,67744.00
2018-05-31T07:40:36.709Z,65024.00
2018-05-31T07:41:36.598Z,64832.00
2018-05-31T07:42:36.518Z,67360.00
2018-05-31T07:43:36.439Z,70752.00
2018-05-31T07:44:36.360Z,70656.00
2018-05-31T07:45:36.311Z,70336.00
2018-05-31T07:46:36.204Z,71360.00
2018-05-31T07:47:36.123Z,68352.00
2018-05-31T07:48:36.044Z,66656.00
2018-05-31T07:49:35.965Z,69664.00
2018-05-31T07:50:35.912Z,69952.00
2018-05-31T07:51:35.806Z,75392.00
2018-05-31T07:52:35.728Z,74432.00
2018-05-31T07:53:35.650Z,73056.00
2018-05-31T07:54:35.569Z,73120.00
2018-05-31T07:55:35.491Z,74400.00
2018-05-31T07:56:35.442Z,77024.00
2018-05-31T07:57:35.425Z,77088.00
2018-05-31T07:58:35.256Z,70688.00
2018-05-31T07:59:35.176Z,74016.00
2018-05-31T08:00:35.099Z,78336.00
2018-05-31T08:01:35.047Z,80544.00
2018-05-31T08:02:34.955Z,82400.00
2018-05-31T08:03:34.861Z,82496.00
2018-05-31T08:04:34.879Z,80256.00
2018-05-31T08:05:34.709Z,80512.00
2018-05-31T08:06:34.660Z,85248.00
2018-05-31T08:07:34.545Z,84928.00
2018-05-31T08:08:34.466Z,76928.00
2018-05-31T08:09:34.388Z,79008.00
2018-05-31T08:10:34.312Z,77664.00
2018-05-31T08:11:34.354Z,85760.00
2018-05-31T08:12:34.150Z,85824.00
2018-05-31T08:13:34.075Z,84320.00
2018-05-31T08:14:34.014Z,84928.00
2018-05-31T08:15:33.916Z,87360.00
2018-05-31T08:16:33.871Z,77984.00
2018-05-31T08:17:33.757Z,74112.00
2018-05-31T08:18:33.773Z,75776.00
2018-05-31T08:19:33.602Z,80064.00
2018-05-31T08:20:33.528Z,86240.00
2018-05-31T08:21:33.477Z,83360.00
2018-05-31T08:22:33.366Z,84128.00
2018-05-31T08:23:33.288Z,84736.00
2018-05-31T08:24:33.209Z,87424.00
2018-05-31T08:25:33.230Z,85248.00
2018-05-31T08:26:33.079Z,83552.00
2018-05-31T08:27:32.975Z,84704.00
2018-05-31T08:28:32.898Z,67328.00
2018-05-31T08:29:32.819Z,80000.00
2018-05-31T08:30:32.738Z,85312.00
2018-05-31T08:31:32.761Z,87808.00
2018-05-31T08:32:32.684Z,45696.00
2018-05-31T08:33:32.508Z,78848.00
2018-05-31T08:34:32.426Z,80160.00
2018-05-31T08:35:33.003Z,82144.00
2018-05-31T08:36:32.301Z,82240.00
2018-05-31T08:37:32.196Z,93760.00
2018-05-31T08:38:32.117Z,92160.00
2018-05-31T08:39:32.136Z,90496.00
2018-05-31T08:40:31.960Z,82688.00
2018-05-31T08:41:31.909Z,83520.00
2018-05-31T08:42:31.801Z,80992.00
2018-05-31T08:43:31.725Z,22048.00
2018-05-31T08:44:31.647Z,78656.00
2018-05-31T08:45:31.571Z,46272.00
2018-05-31T08:46:31.585Z,81696.00
2018-05-31T08:47:31.445Z,89952.00
2018-05-31T08:48:31.338Z,90912.00
2018-05-31T08:49:31.257Z,87136.00
2018-05-31T08:50:31.179Z,80832.00
2018-05-31T08:51:31.111Z,84128.00
2018-05-31T08:52:31.151Z,83584.00
2018-05-31T08:53:30.949Z,81152.00
2018-05-31T08:54:30.870Z,82912.00
2018-05-31T08:55:30.791Z,81984.00
2018-05-31T08:56:30.717Z,71520.00
2018-05-31T08:57:30.677Z,87008.00
2018-05-31T08:58:30.578Z,89472.00
2018-05-31T08:59:30.481Z,84096.00
2018-05-31T09:00:30.405Z,86272.00
2018-05-31T09:01:30.327Z,68032.00
2018-05-31T09:02:30.280Z,43584.00
2018-05-31T09:03:30.169Z,91328.00
2018-05-31T09:04:30.093Z,92608.00
2018-05-31T09:05:30.016Z,91680.00
2018-05-31T09:06:29.938Z,81984.00
2018-05-31T09:07:29.891Z,85152.00
2018-05-31T09:08:29.784Z,98240.00
2018-05-31T09:09:29.722Z,97248.00
2018-05-31T09:10:29.629Z,91680.00
2018-05-31T09:11:29.552Z,92832.00
2018-05-31T09:12:29.507Z,93952.00
2018-05-31T09:13:29.396Z,96768.00
2018-05-31T09:14:29.319Z,95616.00
2018-05-31T09:15:29.241Z,92544.00
2018-05-31T09:16:29.163Z,95744.00
2018-05-31T09:17:29.124Z,91840.00
2018-05-31T09:18:29.011Z,87808.00
2018-05-31T09:19:28.935Z,100512.00
2018-05-31T09:20:28.859Z,100608.00
2018-05-31T09:21:28.782Z,97984.00
2018-05-31T09:22:28.732Z,101792.00
2018-05-31T09:23:28.626Z,86080.00
2018-05-31T09:24:28.551Z,104960.00
2018-05-31T09:25:28.491Z,105824.00
2018-05-31T09:26:28.397Z,106304.00
2018-05-31T09:27:28.351Z,104224.00
2018-05-31T09:28:28.291Z,96992.00
2018-05-31T09:29:28.166Z,98048.00
2018-05-31T09:30:28.088Z,103488.00
2018-05-31T09:31:28.013Z,103744.00
2018-05-31T09:32:27.965Z,113088.00
2018-05-31T09:33:27.859Z,116736.00
2018-05-31T09:34:27.783Z,110912.00
2018-05-31T09:35:27.707Z,103200.00
2018-05-31T09:36:27.631Z,105408.00
2018-05-31T09:37:27.585Z,113792.00
2018-05-31T09:38:27.479Z,115040.00
2018-05-31T09:39:27.401Z,113440.00
2018-05-31T09:40:27.325Z,100832.00
2018-05-31T09:41:27.255Z,95008.00
2018-05-31T09:42:27.208Z,86208.00
2018-05-31T09:43:27.099Z,93664.00
2018-05-31T09:44:27.023Z,101376.00
2018-05-31T09:45:26.947Z,109536.00
2018-05-31T09:46:26.870Z,106016.00
2018-05-31T09:47:26.823Z,95104.00
2018-05-31T09:48:26.719Z,89792.00
2018-05-31T09:49:26.651Z,85984.00
2018-05-31T09:50:26.568Z,92672.00
2018-05-31T09:51:26.488Z,94784.00
2018-05-31T09:52:26.414Z,99424.00
2018-05-31T09:53:26.371Z,102752.00
2018-05-31T09:54:26.262Z,105568.00
2018-05-31T09:55:26.228Z,109120.00
2018-05-31T09:56:26.111Z,103552.00
2018-05-31T09:57:26.041Z,106336.00
2018-05-31T09:58:25.990Z,104128.00
2018-05-31T09:59:25.885Z,97696.00
2018-05-31T10:00:25.809Z,99872.00
2018-05-31T10:01:25.733Z,93568.00
2018-05-31T10:02:25.661Z,91456.00
2018-05-31T10:03:25.626Z,95328.00
2018-05-31T10:04:25.507Z,100960.00
2018-05-31T10:05:25.430Z,95616.00
2018-05-31T10:06:25.353Z,97280.00
2018-05-31T10:07:25.279Z,97600.00
2018-05-31T10:08:25.230Z,100608.00
2018-05-31T10:09:25.129Z,100512.00
2018-05-31T10:10:25.050Z,104704.00
2018-05-31T10:11:24.976Z,104096.00
2018-05-31T10:12:24.899Z,100480.00
2018-05-31T10:13:24.853Z,102016.00
2018-05-31T10:14:24.749Z,103904.00
2018-05-31T10:15:24.675Z,99840.00
2018-05-31T10:16:24.703Z,100224.00
2018-05-31T10:17:24.528Z,98432.00
2018-05-31T10:18:24.479Z,99936.00
2018-05-31T10:19:24.371Z,97760.00
2018-05-31T10:20:24.296Z,98624.00
2018-05-31T10:21:24.221Z,104480.00
2018-05-31T10:22:24.143Z,103072.00
2018-05-31T10:23:24.192Z,114432.00
2018-05-31T10:24:23.993Z,102720.00
2018-05-31T10:25:24.641Z,100832.00
2018-05-31T10:26:23.840Z,107648.00
2018-05-31T10:27:23.776Z,100352.00
2018-05-31T10:28:23.724Z,91360.00
2018-05-31T10:29:23.619Z,100288.00
2018-05-31T10:30:23.633Z,99968.00
2018-05-31T10:31:23.468Z,102208.00
2018-05-31T10:32:23.391Z,100576.00
2018-05-31T10:33:23.345Z,108192.00
2018-05-31T10:34:23.239Z,100192.00
2018-05-31T10:35:23.163Z,98848.00
2018-05-31T10:36:24.006Z,102784.00
2018-05-31T10:37:23.114Z,101376.00
2018-05-31T10:38:22.970Z,96160.00
2018-05-31T10:39:22.885Z,106336.00
2018-05-31T10:40:22.791Z,109632.00
2018-05-31T10:41:22.715Z,98848.00
2018-05-31T10:42:22.641Z,100480.00
2018-05-31T10:43:22.595Z,104960.00
2018-05-31T10:44:22.590Z,103936.00
2018-05-31T10:45:22.413Z,101216.00
2018-05-31T10:46:22.394Z,107584.00
2018-05-31T10:47:22.265Z,96704.00
2018-05-31T10:48:22.215Z,101408.00
2018-05-31T10:49:22.112Z,104800.00
2018-05-31T10:50:22.034Z,85280.00
2018-05-31T10:51:22.054Z,103744.00
2018-05-31T10:52:21.886Z,103648.00
2018-05-31T10:53:21.808Z,98944.00
2018-05-31T10:54:21.765Z,103360.00
2018-05-31T10:55:21.659Z,108096.00
2018-05-31T10:56:21.584Z,101664.00
2018-05-31T10:57:21.510Z,99616.00
2018-05-31T10:58:21.527Z,104448.00
2018-05-31T10:59:21.463Z,107616.00
2018-05-31T11:00:21.284Z,102016.00
2018-05-31T11:01:21.209Z,98624.00
2018-05-31T11:02:21.132Z,97568.00
2018-05-31T11:03:21.058Z,88224.00
2018-05-31T11:04:21.012Z,96896.00
2018-05-31T11:05:20.907Z,103360.00
2018-05-31T11:06:20.831Z,107552.00
2018-05-31T11:07:20.753Z,102848.00
2018-05-31T11:08:20.682Z,102720.00
2018-05-31T11:09:20.634Z,102976.00
2018-05-31T11:10:20.526Z,92512.00
2018-05-31T11:11:20.549Z,99360.00
2018-05-31T11:12:20.378Z,100640.00
2018-05-31T11:13:20.301Z,97056.00
2018-05-31T11:14:20.257Z,108128.00
2018-05-31T11:15:20.151Z,106560.00
2018-05-31T11:16:20.086Z,102464.00
2018-05-31T11:17:20.001Z,103552.00
2018-05-31T11:18:19.927Z,97600.00
2018-05-31T11:19:19.881Z,98432.00
2018-05-31T11:20:19.775Z,98624.00
2018-05-31T11:21:19.703Z,99776.00
2018-05-31T11:22:19.622Z,102304.00
2018-05-31T11:23:19.554Z,102400.00
2018-05-31T11:24:19.507Z,102464.00
2018-05-31T11:25:19.402Z,102528.00
2018-05-31T11:26:19.331Z,104448.00
2018-05-31T11:27:19.252Z,98912.00
2018-05-31T11:28:19.179Z,100192.00
2018-05-31T11:29:19.206Z,102304.00
2018-05-31T11:30:19.027Z,95936.00
2018-05-31T11:31:18.951Z,97664.00
2018-05-31T11:32:18.876Z,99680.00
2018-05-31T11:33:18.800Z,99744.00
2018-05-31T11:34:18.756Z,102144.00
2018-05-31T11:35:18.649Z,109248.00
2018-05-31T11:36:18.575Z,99968.00
2018-05-31T11:37:18.500Z,100608.00
2018-05-31T11:38:18.427Z,95584.00
2018-05-31T11:39:18.382Z,82560.00
2018-05-31T11:40:18.273Z,96096.00
2018-05-31T11:41:18.199Z,99360.00
2018-05-31T11:42:18.125Z,97888.00
2018-05-31T11:43:18.047Z,113536.00
2018-05-31T11:44:18.004Z,116896.00
2018-05-31T11:45:17.901Z,99232.00
2018-05-31T11:46:17.822Z,98912.00
2018-05-31T11:47:17.748Z,106848.00
2018-05-31T11:48:17.675Z,101568.00
2018-05-31T11:49:17.628Z,96416.00
2018-05-31T11:50:17.527Z,99776.00
2018-05-31T11:51:17.450Z,104608.00
2018-05-31T11:52:17.378Z,95872.00
2018-05-31T11:53:17.308Z,100224.00
2018-05-31T11:54:17.252Z,103552.00
2018-05-31T11:55:17.150Z,104288.00
2018-05-31T11:56:17.078Z,108352.00
2018-05-31T11:57:17.001Z,99360.00
2018-05-31T11:58:16.925Z,100064.00
2018-05-31T11:59:16.881Z,101408.00
2018-05-31T12:00:16.777Z,94784.00
2018-05-31T12:01:16.703Z,101024.00
2018-05-31T12:02:16.626Z,99776.00
2018-05-31T12:03:16.552Z,99680.00
2018-05-31T12:04:16.515Z,104192.00
2018-05-31T12:05:16.433Z,97056.00
2018-05-31T12:06:16.328Z,98720.00
2018-05-31T12:07:16.255Z,96608.00